Time;durP1;ratioP1;P1;durP2;ratioP2;P2;SDS_P1;SDS_P2;PMS_P1;PMS_P2;Temp;Humidity;BMP_temperature;BMP_pressure;BME280_temperature;BME280_humidity;BME280_pressure;Samples;Min_cycle;Max_cycle;Signal;HPM_P1;HPM_P2
2023/08/06 00:02:25;;;;;;;10.10;2.97;;;;;10.40;93398.00;;;;7389227;19;20515;-80
2023/08/06 00:05:03;;;;;;;5.07;3.05;;;;;10.40;93385.00;;;;7388219;19;20621;-80
2023/08/06 00:07:43;;;;;;;4.45;3.13;;;;;10.40;93388.00;;;;7391467;19;20160;-78
2023/08/06 00:10:20;;;;;;;3.55;3.08;;;;;10.40;93395.00;;;;7392756;19;20192;-79
2023/08/06 00:12:57;;;;;;;7.27;3.77;;;;;10.40;93393.00;;;;7388983;19;20212;-78
2023/08/06 00:15:24;;;;;;;6.77;3.37;;;;;10.50;93394.00;;;;7389937;19;20470;-78
2023/08/06 00:18:08;;;;;;;5.47;3.42;;;;;10.60;93393.00;;;;7389945;19;20132;-78
2023/08/06 00:20:42;;;;;;;7.22;3.83;;;;;10.60;93394.00;;;;7390826;19;20600;-79
2023/08/06 00:23:09;;;;;;;5.03;2.95;;;;;10.60;93387.00;;;;7389884;19;20125;-77
2023/08/06 00:25:44;;;;;;;5.03;3.38;;;;;10.50;93385.00;;;;7388641;19;20208;-75
2023/08/06 00:28:11;;;;;;;5.72;3.40;;;;;10.50;93385.00;;;;7390264;19;20604;-76
2023/08/06 00:30:54;;;;;;;4.00;3.15;;;;;10.40;93387.00;;;;7389097;19;20149;-77
2023/08/06 00:33:25;;;;;;;4.68;2.92;;;;;10.40;93374.00;;;;7388581;19;20168;-75
2023/08/06 00:35:59;;;;;;;5.50;3.13;;;;;10.40;93370.00;;;;7388403;19;20186;-76
2023/08/06 00:38:27;;;;;;;6.05;3.25;;;;;10.40;93371.00;;;;7389924;19;20479;-78
2023/08/06 00:41:01;;;;;;;4.20;3.50;;;;;10.40;93371.00;;;;7388938;19;20151;-76
2023/08/06 00:43:29;;;;;;;3.30;3.00;;;;;10.40;93362.00;;;;7389250;19;20600;-77
2023/08/06 00:46:08;;;;;;;5.68;3.30;;;;;10.40;93360.00;;;;7380921;19;20182;-76
2023/08/06 00:48:36;;;;;;;6.70;3.00;;;;;10.40;93352.00;;;;7389304;19;20137;-76
2023/08/06 00:51:11;;;;;;;5.47;3.47;;;;;10.40;93351.00;;;;7388452;19;20565;-77
2023/08/06 00:53:39;;;;;;;4.47;3.53;;;;;10.50;93352.00;;;;7387761;19;20152;-77
2023/08/06 00:56:16;;;;;;;7.32;3.35;;;;;10.50;93347.00;;;;7387571;19;20623;-77
2023/08/06 00:58:46;;;;;;;5.22;3.13;;;;;10.50;93345.00;;;;7389430;19;20210;-77
2023/08/06 01:01:21;;;;;;;5.45;3.17;;;;;10.40;93329.00;;;;7388100;19;20160;-77
2023/08/06 01:03:49;;;;;;;5.63;3.35;;;;;10.40;93328.00;;;;7388597;19;20488;-79
2023/08/06 01:06:44;;;;;;;4.32;3.45;;;;;10.50;93332.00;;;;7387637;19;20148;-76
2023/08/06 01:09:46;;;;;;;6.57;3.30;;;;;10.50;93322.00;;;;7389587;19;20133;-75
2023/08/06 01:12:35;;;;;;;4.70;3.30;;;;;10.50;93327.00;;;;7387704;19;20195;-77
2023/08/06 01:15:21;;;;;;;5.93;3.30;;;;;10.60;93332.00;;;;7386983;19;20192;-78
2023/08/06 01:17:52;;;;;;;4.37;3.40;;;;;10.50;93333.00;;;;7387956;19;20148;-76
2023/08/06 01:20:30;;;;;;;4.78;3.10;;;;;10.60;93329.00;;;;7388693;19;20135;-78
2023/08/06 01:23:04;;;;;;;3.65;3.10;;;;;10.40;93335.00;;;;7386782;19;20149;-77
2023/08/06 01:25:57;;;;;;;7.55;2.88;;;;;10.40;93333.00;;;;7386413;19;20144;-77
2023/08/06 01:29:01;;;;;;;3.43;3.10;;;;;10.40;93322.00;;;;7387087;19;20579;-78
2023/08/06 01:31:36;;;;;;;3.70;2.92;;;;;10.30;93321.00;;;;7385407;19;20180;-78
2023/08/06 01:34:17;;;;;;;3.40;2.72;;;;;10.30;93310.00;;;;7389717;19;20125;-79
2023/08/06 01:36:56;;;;;;;5.23;3.07;;;;;10.40;93316.00;;;;7389466;19;20151;-78
2023/08/06 01:39:42;;;;;;;5.15;3.15;;;;;10.40;93317.00;;;;7390649;19;20584;-79
2023/08/06 01:42:12;;;;;;;7.03;2.93;;;;;10.40;93315.00;;;;7387339;19;20152;-78
2023/08/06 01:44:50;;;;;;;4.20;2.87;;;;;10.30;93312.00;;;;7387144;19;20611;-79
2023/08/06 01:47:20;;;;;;;10.73;2.85;;;;;10.50;93313.00;;;;7386049;19;20223;-83
2023/08/06 01:49:47;;;;;;;9.13;3.10;;;;;10.60;93318.00;;;;7384535;19;20600;-80
2023/08/06 01:52:22;;;;;;;5.93;3.35;;;;;10.70;93317.00;;;;7385567;19;20144;-81
2023/08/06 01:54:50;;;;;;;4.47;3.35;;;;;10.70;93307.00;;;;7389299;19;20150;-81
2023/08/06 01:57:23;;;;;;;6.07;2.90;;;;;10.80;93311.00;;;;7387286;19;20153;-79
2023/08/06 01:59:51;;;;;;;9.90;3.33;;;;;10.80;93311.00;;;;7387903;19;20156;-80
2023/08/06 02:02:34;;;;;;;3.67;3.03;;;;;10.80;93307.00;;;;7386922;19;20517;-81
2023/08/06 02:05:03;;;;;;;10.57;3.80;;;;;10.80;93303.00;;;;7390952;19;20136;-81
2023/08/06 02:07:43;;;;;;;6.43;3.45;;;;;10.80;93299.00;;;;7385616;19;20159;-79
2023/08/06 02:10:17;;;;;;;5.40;2.67;;;;;10.80;93294.00;;;;7387774;19;20624;-80
2023/08/06 02:12:59;;;;;;;5.93;3.28;;;;;10.80;93294.00;;;;7386236;19;20514;-79
2023/08/06 02:15:27;;;;;;;6.90;3.33;;;;;10.90;93287.00;;;;7386580;19;20596;-80
2023/08/06 02:18:11;;;;;;;6.78;3.20;;;;;10.90;93289.00;;;;7387031;19;20868;-80
2023/08/06 02:20:39;;;;;;;3.78;3.17;;;;;11.00;93282.00;;;;7386251;19;20628;-80
2023/08/06 02:23:13;;;;;;;5.32;3.03;;;;;11.00;93275.00;;;;7385971;19;20152;-79
2023/08/06 02:25:40;;;;;;;3.42;2.92;;;;;10.90;93276.00;;;;7386137;19;20659;-77
2023/08/06 02:28:19;;;;;;;6.15;3.20;;;;;11.00;93277.00;;;;7385913;19;20164;-79
2023/08/06 02:30:51;;;;;;;5.57;2.83;;;;;11.20;93278.00;;;;7386438;19;20145;-77
2023/08/06 02:33:26;;;;;;;7.00;3.30;;;;;11.20;93282.00;;;;7388397;19;20596;-79
2023/08/06 02:36:01;;;;;;;4.30;3.17;;;;;11.20;93272.00;;;;7385384;19;20227;-80
2023/08/06 02:38:35;;;;;;;4.78;3.70;;;;;11.20;93268.00;;;;7386243;19;20492;-81
2023/08/06 02:41:06;;;;;;;6.57;3.42;;;;;11.30;93256.00;;;;7387936;19;20140;-84
2023/08/06 02:43:39;;;;;;;5.82;3.08;;;;;11.30;93254.00;;;;7386255;19;20484;-79
2023/08/06 02:46:10;;;;;;;5.90;3.00;;;;;11.40;93241.00;;;;7386272;19;20500;-79
2023/08/06 02:48:44;;;;;;;5.72;3.13;;;;;11.40;93235.00;;;;7387388;19;20152;-79
2023/08/06 02:51:12;;;;;;;5.45;3.20;;;;;11.40;93229.00;;;;7386629;19;20145;-79
2023/08/06 02:53:49;;;;;;;6.28;3.63;;;;;11.50;93235.00;;;;7384922;19;20505;-80
2023/08/06 02:56:26;;;;;;;6.53;2.55;;;;;11.50;93238.00;;;;7385203;19;20152;-79
2023/08/06 02:59:04;;;;;;;8.75;3.92;;;;;11.50;93244.00;;;;7387048;19;20136;-79
2023/08/06 03:01:31;;;;;;;7.57;3.53;;;;;11.60;93241.00;;;;7384500;19;20681;-79
2023/08/06 03:04:09;;;;;;;4.35;2.70;;;;;11.50;93231.00;;;;7385088;19;20635;-79
2023/08/06 03:06:37;;;;;;;5.18;3.15;;;;;11.40;93233.00;;;;7387512;19;20176;-77
2023/08/06 03:09:19;;;;;;;7.40;3.22;;;;;11.40;93223.00;;;;7387022;19;20148;-78
2023/08/06 03:11:56;;;;;;;7.80;2.92;;;;;11.40;93224.00;;;;7386879;19;20160;-77
2023/08/06 03:14:32;;;;;;;7.03;2.80;;;;;11.40;93230.00;;;;7384974;19;20152;-77
2023/08/06 03:17:06;;;;;;;4.05;3.17;;;;;11.40;93230.00;;;;7384944;19;20492;-79
2023/08/06 03:19:36;;;;;;;5.28;3.00;;;;;11.40;93225.00;;;;7387004;19;20628;-76
2023/08/06 03:22:10;;;;;;;4.82;2.67;;;;;11.40;93224.00;;;;7384765;19;20468;-79
2023/08/06 03:24:44;;;;;;;5.38;2.97;;;;;11.40;93222.00;;;;7385729;19;20139;-79
2023/08/06 03:27:11;;;;;;;5.28;2.70;;;;;11.40;93226.00;;;;7384986;19;20137;-79
2023/08/06 03:29:39;;;;;;;4.75;2.80;;;;;11.40;93225.00;;;;7385638;19;20503;-76
2023/08/06 03:32:14;;;;;;;4.90;2.75;;;;;11.40;93222.00;;;;7386210;19;20136;-77
2023/08/06 03:34:50;;;;;;;3.90;2.70;;;;;11.50;93223.00;;;;7383641;19;20208;-78
2023/08/06 03:37:25;;;;;;;6.45;2.80;;;;;11.50;93226.00;;;;7383799;19;20155;-76
2023/08/06 03:39:52;;;;;;;5.53;2.90;;;;;11.50;93224.00;;;;7382704;19;20604;-77
2023/08/06 03:42:29;;;;;;;5.00;2.50;;;;;11.60;93233.00;;;;7384778;19;20606;-78
2023/08/06 03:45:03;;;;;;;7.00;2.63;;;;;11.50;93237.00;;;;7383703;19;20152;-76
2023/08/06 03:47:37;;;;;;;3.22;2.42;;;;;11.60;93237.00;;;;7383295;19;20157;-76
2023/08/06 03:50:11;;;;;;;4.47;2.65;;;;;11.60;93240.00;;;;7384452;19;20625;-79
2023/08/06 03:52:38;;;;;;;4.25;2.33;;;;;11.50;93234.00;;;;7384636;19;20155;-75
2023/08/06 03:55:20;;;;;;;5.47;1.92;;;;;11.60;93238.00;;;;7382246;19;20144;-76
2023/08/06 03:57:48;;;;;;;3.72;1.90;;;;;11.50;93236.00;;;;7381128;19;20650;-74
2023/08/06 04:00:22;;;;;;;7.15;1.73;;;;;11.40;93238.00;;;;7381635;19;20156;-75
2023/08/06 04:02:50;;;;;;;8.50;1.75;;;;;11.30;93224.00;;;;7381949;19;20156;-77
2023/08/06 04:05:24;;;;;;;2.60;1.67;;;;;11.10;93234.00;;;;7381043;19;20632;-77
2023/08/06 04:08:11;;;;;;;1.25;1.10;;;;;11.10;93234.00;;;;7382493;19;20153;-76
2023/08/06 04:10:39;;;;;;;3.38;1.50;;;;;11.10;93239.00;;;;7382407;19;20133;-75
2023/08/06 04:13:14;;;;;;;3.05;1.10;;;;;11.00;93235.00;;;;7381004;19;20571;-78
2023/08/06 04:15:41;;;;;;;1.25;1.08;;;;;10.80;93247.00;;;;7381285;19;20125;-75
2023/08/06 04:18:15;;;;;;;1.88;1.00;;;;;10.80;93240.00;;;;7381998;19;20580;-76
2023/08/06 04:20:49;;;;;;;2.22;1.38;;;;;10.90;93236.00;;;;7381406;19;20152;-77
2023/08/06 04:23:24;;;;;;;1.02;0.85;;;;;10.90;93233.00;;;;7382168;19;20161;-77
2023/08/06 04:25:59;;;;;;;0.68;0.55;;;;;10.90;93229.00;;;;7382743;19;20639;-75
2023/08/06 04:28:48;;;;;;;2.07;1.10;;;;;10.80;93238.00;;;;7381055;19;20153;-75
2023/08/06 04:31:23;;;;;;;1.60;1.02;;;;;10.80;93239.00;;;;7389288;19;20448;-75
2023/08/06 04:33:57;;;;;;;1.90;1.10;;;;;10.80;93236.00;;;;7387019;19;20144;-76
2023/08/06 04:36:25;;;;;;;0.82;0.75;;;;;10.90;93238.00;;;;7388108;19;20139;-77
2023/08/06 04:38:59;;;;;;;2.70;1.10;;;;;11.00;93240.00;;;;7388151;19;20186;-76
2023/08/06 04:41:27;;;;;;;2.38;1.00;;;;;11.10;93236.00;;;;7388291;19;20215;-75
2023/08/06 04:44:01;;;;;;;1.67;1.08;;;;;11.10;93227.00;;;;7386287;19;20624;-76
2023/08/06 04:46:35;;;;;;;1.70;0.90;;;;;11.10;93218.00;;;;7387778;19;20148;-76
2023/08/06 04:49:09;;;;;;;1.60;0.70;;;;;11.10;93213.00;;;;7390020;19;20165;-78
2023/08/06 04:51:43;;;;;;;1.98;1.10;;;;;11.10;93216.00;;;;7386225;19;20132;-75
2023/08/06 04:54:18;;;;;;;1.42;0.90;;;;;11.20;93214.00;;;;7389070;19;20139;-78
2023/08/06 04:56:52;;;;;;;1.10;1.00;;;;;11.20;93226.00;;;;7388885;19;20132;-76
2023/08/06 04:59:20;;;;;;;2.90;1.00;;;;;11.20;93223.00;;;;7387772;19;20129;-76
2023/08/06 05:02:01;;;;;;;1.40;1.00;;;;;11.20;93224.00;;;;7387148;19;20159;-76
2023/08/06 05:04:28;;;;;;;1.67;0.82;;;;;11.20;93229.00;;;;7388115;19;20255;-77
2023/08/06 05:07:05;;;;;;;1.63;0.85;;;;;11.20;93231.00;;;;7383397;19;20519;-78
2023/08/06 05:09:45;;;;;;;4.90;0.70;;;;;11.20;93229.00;;;;7385713;19;20148;-77
2023/08/06 05:12:20;;;;;;;1.77;1.20;;;;;11.20;93231.00;;;;7383971;19;20670;-78
2023/08/06 05:14:48;;;;;;;1.35;0.82;;;;;11.20;93231.00;;;;7385003;19;20137;-78
2023/08/06 05:17:24;;;;;;;1.65;0.80;;;;;11.20;93238.00;;;;7388368;19;20149;-79
2023/08/06 05:19:58;;;;;;;1.33;0.93;;;;;11.20;93244.00;;;;7384889;19;20140;-78
2023/08/06 05:22:33;;;;;;;2.80;0.93;;;;;11.20;93254.00;;;;7385600;19;20148;-78
2023/08/06 05:25:08;;;;;;;2.53;1.08;;;;;11.30;93252.00;;;;7386531;19;20182;-79
2023/08/06 05:27:43;;;;;;;2.70;1.17;;;;;11.30;93244.00;;;;7387057;19;20148;-78
2023/08/06 05:30:17;;;;;;;1.70;0.90;;;;;11.30;93246.00;;;;7385809;19;20148;-79
2023/08/06 05:32:52;;;;;;;0.90;0.70;;;;;11.20;93252.00;;;;7384520;19;20132;-78
2023/08/06 05:35:20;;;;;;;2.58;0.88;;;;;11.30;93245.00;;;;7387363;19;20129;-78
2023/08/06 05:37:54;;;;;;;4.25;1.10;;;;;11.30;93251.00;;;;7385660;19;20145;-79
2023/08/06 05:40:24;;;;;;;2.70;0.70;;;;;11.30;93247.00;;;;7385539;19;20149;-79
2023/08/06 05:42:58;;;;;;;1.38;0.95;;;;;11.40;93248.00;;;;7383914;19;20165;-79
2023/08/06 05:45:32;;;;;;;1.05;0.68;;;;;11.40;93233.00;;;;7386280;19;20148;-79
2023/08/06 05:48:10;;;;;;;3.40;1.10;;;;;11.50;93247.00;;;;7386684;19;20128;-79
2023/08/06 05:50:45;;;;;;;0.60;0.60;;;;;11.60;93235.00;;;;7385995;19;20180;-77
2023/08/06 05:53:13;;;;;;;0.88;0.50;;;;;11.60;93240.00;;;;7385753;19;20632;-78
2023/08/06 05:55:48;;;;;;;0.90;0.60;;;;;11.60;93233.00;;;;7386576;19;20615;-78
2023/08/06 05:58:25;;;;;;;1.75;0.60;;;;;11.60;93233.00;;;;7385054;19;20152;-78
2023/08/06 06:00:59;;;;;;;1.52;0.40;;;;;11.60;93245.00;;;;7384709;19;20183;-79
2023/08/06 06:03:36;;;;;;;1.55;0.75;;;;;11.50;93238.00;;;;7387050;19;20139;-79
2023/08/06 06:06:03;;;;;;;1.33;0.40;;;;;11.50;93247.00;;;;7381238;19;20266;-78
2023/08/06 06:08:46;;;;;;;1.77;0.70;;;;;11.40;93253.00;;;;7384269;19;20837;-79
2023/08/06 06:11:13;;;;;;;0.68;0.20;;;;;11.50;93254.00;;;;7384548;19;20161;-80
2023/08/06 06:13:51;;;;;;;0.40;0.40;;;;;11.70;93228.00;;;;7386558;19;20427;-77
2023/08/06 06:16:18;;;;;;;0.43;0.20;;;;;11.80;93247.00;;;;7379384;19;20164;-77
2023/08/06 06:18:54;;;;;;;0.65;0.30;;;;;11.70;93255.00;;;;7386343;19;20560;-78
2023/08/06 06:21:28;;;;;;;0.45;0.20;;;;;11.70;93258.00;;;;7385286;19;20143;-80
2023/08/06 06:23:57;;;;;;;0.10;0.10;;;;;11.80;93257.00;;;;7386867;19;20537;-76
2023/08/06 06:26:32;;;;;;;0.15;0.15;;;;;11.80;93258.00;;;;7385324;19;20900;-79
2023/08/06 06:29:00;;;;;;;1.90;0.88;;;;;11.80;93265.00;;;;7386353;19;20607;-79
2023/08/06 06:31:35;;;;;;;0.00;0.00;;;;;11.80;93273.00;;;;7384414;19;20168;-77
2023/08/06 06:34:09;;;;;;;0.10;0.10;;;;;11.50;93274.00;;;;7384878;19;20156;-77
2023/08/06 06:36:43;;;;;;;1.00;0.17;;;;;11.40;93276.00;;;;7386065;19;20188;-78
2023/08/06 06:39:18;;;;;;;0.70;0.20;;;;;11.40;93261.00;;;;7387993;19;20216;-79
2023/08/06 06:41:46;;;;;;;0.25;0.10;;;;;11.50;93269.00;;;;7387477;19;20141;-79
2023/08/06 06:44:37;;;;;;;0.10;0.10;;;;;11.60;93271.00;;;;7385960;19;20140;-80
2023/08/06 06:47:17;;;;;;;0.22;0.20;;;;;11.70;93266.00;;;;7384214;19;20196;-77
2023/08/06 06:49:52;;;;;;;1.27;0.32;;;;;11.70;93270.00;;;;7381953;19;20136;-76
2023/08/06 06:52:26;;;;;;;0.20;0.20;;;;;12.00;93270.00;;;;7384283;19;20129;-77
2023/08/06 06:55:00;;;;;;;0.20;0.05;;;;;12.20;93262.00;;;;7385917;19;20823;-78
2023/08/06 06:57:28;;;;;;;0.20;0.10;;;;;12.10;93270.00;;;;7383710;19;20152;-77
2023/08/06 07:00:02;;;;;;;0.70;0.10;;;;;12.00;93273.00;;;;7383538;19;20146;-79
2023/08/06 07:02:33;;;;;;;1.30;0.17;;;;;11.90;93278.00;;;;7384673;19;20173;-76
2023/08/06 07:05:09;;;;;;;0.20;0.20;;;;;11.80;93282.00;;;;7384260;19;20144;-79
2023/08/06 07:07:44;;;;;;;0.25;0.10;;;;;11.70;93279.00;;;;7383144;19;20182;-78
2023/08/06 07:10:29;;;;;;;0.93;0.20;;;;;11.60;93276.00;;;;7384879;19;20132;-79
2023/08/06 07:13:03;;;;;;;0.00;0.00;;;;;11.50;93274.00;;;;7385608;19;20125;-79
2023/08/06 07:15:37;;;;;;;0.00;0.00;;;;;11.40;93266.00;;;;7385354;19;20135;-79
2023/08/06 07:18:11;;;;;;;0.10;0.10;;;;;11.60;93270.00;;;;7381942;19;20131;-79
2023/08/06 07:20:51;;;;;;;0.30;0.20;;;;;11.80;93278.00;;;;7382004;19;20200;-76
2023/08/06 07:23:26;;;;;;;0.52;0.20;;;;;11.80;93275.00;;;;7381988;19;20169;-77
2023/08/06 07:26:00;;;;;;;0.20;0.20;;;;;11.80;93278.00;;;;7382334;19;20188;-77
2023/08/06 07:28:28;;;;;;;0.10;0.10;;;;;11.90;93279.00;;;;7382744;19;20140;-76
2023/08/06 07:30:57;;;;;;;0.35;0.20;;;;;11.90;93275.00;;;;7384364;19;21916;-78
2023/08/06 07:33:35;;;;;;;0.60;0.22;;;;;12.00;93282.00;;;;7381646;19;20148;-87
2023/08/06 07:36:14;;;;;;;0.30;0.20;;;;;12.00;93274.00;;;;7380501;19;20136;-77
2023/08/06 07:38:51;;;;;;;0.30;0.20;;;;;12.20;93285.00;;;;7381699;19;20493;-78
2023/08/06 07:41:28;;;;;;;0.15;0.15;;;;;12.10;93281.00;;;;7380795;19;20144;-79
2023/08/06 07:43:56;;;;;;;0.10;0.10;;;;;12.00;93283.00;;;;7382178;19;20976;-79
2023/08/06 07:46:30;;;;;;;0.10;0.10;;;;;12.00;93286.00;;;;7381326;19;20159;-79
2023/08/06 07:49:04;;;;;;;0.10;0.03;;;;;12.00;93292.00;;;;7381636;19;20136;-79
2023/08/06 07:51:32;;;;;;;0.00;0.00;;;;;11.90;93293.00;;;;7383037;19;20156;-79
2023/08/06 07:54:07;;;;;;;0.17;0.10;;;;;12.00;93296.00;;;;7381537;19;20640;-77
2023/08/06 07:56:36;;;;;;;0.00;0.00;;;;;11.80;93291.00;;;;7381639;19;20180;-74
2023/08/06 07:59:04;;;;;;;0.43;0.20;;;;;11.80;93290.00;;;;7381658;19;20148;-78
2023/08/06 08:01:38;;;;;;;0.05;0.05;;;;;12.00;93276.00;;;;7378439;19;20180;-77
2023/08/06 08:04:12;;;;;;;0.10;0.10;;;;;11.90;93297.00;;;;7381922;19;20133;-77
2023/08/06 08:06:40;;;;;;;0.20;0.10;;;;;12.00;93297.00;;;;7389666;19;20609;-77
2023/08/06 08:09:21;;;;;;;0.00;0.00;;;;;12.10;93305.00;;;;7388440;19;20144;-77
2023/08/06 08:11:50;;;;;;;0.10;0.10;;;;;12.10;93289.00;;;;7388391;19;20513;-77
2023/08/06 08:14:28;;;;;;;0.30;0.20;;;;;12.40;93286.00;;;;7385279;19;20162;-77
2023/08/06 08:16:56;;;;;;;0.00;0.00;;;;;12.40;93291.00;;;;7386898;19;20137;-74
2023/08/06 08:19:30;;;;;;;0.10;0.10;;;;;12.50;93294.00;;;;7387615;19;20216;-74
2023/08/06 08:21:58;;;;;;;0.00;0.00;;;;;12.40;93292.00;;;;7386792;19;20132;-77
2023/08/06 08:24:32;;;;;;;0.10;0.00;;;;;12.50;93287.00;;;;7389098;19;20207;-75
2023/08/06 08:27:07;;;;;;;0.00;0.00;;;;;12.30;93283.00;;;;7390377;19;20305;-77
2023/08/06 08:29:42;;;;;;;0.00;0.00;;;;;12.30;93293.00;;;;7386557;19;20155;-74
2023/08/06 08:32:10;;;;;;;0.10;0.10;;;;;12.20;93280.00;;;;7387562;19;20125;-76
2023/08/06 08:34:46;;;;;;;0.28;0.10;;;;;12.60;93279.00;;;;7387847;19;20640;-78
2023/08/06 08:37:14;;;;;;;0.00;0.00;;;;;12.60;93277.00;;;;7390403;19;20580;-78
2023/08/06 08:39:42;;;;;;;0.00;0.00;;;;;12.90;93281.00;;;;7390520;19;20461;-77
2023/08/06 08:42:16;;;;;;;0.03;0.03;;;;;13.10;93285.00;;;;7388232;19;20156;-78
2023/08/06 08:44:52;;;;;;;0.08;0.08;;;;;13.00;93294.00;;;;7388891;19;20153;-77
2023/08/06 08:47:26;;;;;;;0.20;0.20;;;;;12.70;93302.00;;;;7386560;19;20471;-78
2023/08/06 08:49:55;;;;;;;0.25;0.20;;;;;12.60;93297.00;;;;7387673;19;20592;-77
2023/08/06 08:52:25;;;;;;;0.00;0.00;;;;;12.70;93302.00;;;;7388154;19;20613;-78
2023/08/06 08:55:02;;;;;;;0.00;0.00;;;;;12.60;93306.00;;;;7389094;19;20498;-79
2023/08/06 08:57:29;;;;;;;0.20;0.20;;;;;12.40;93297.00;;;;7387628;19;20159;-79
2023/08/06 08:59:57;;;;;;;0.55;0.10;;;;;12.50;93306.00;;;;7388569;19;20170;-79
2023/08/06 09:02:33;;;;;;;0.40;0.10;;;;;12.30;93307.00;;;;7384448;19;20179;-78
2023/08/06 09:05:08;;;;;;;0.10;0.10;;;;;12.10;93315.00;;;;7387852;19;20144;-77
2023/08/06 09:07:49;;;;;;;0.15;0.15;;;;;12.10;93312.00;;;;7388355;19;20202;-75
2023/08/06 09:10:25;;;;;;;0.10;0.10;;;;;12.10;93312.00;;;;7389975;19;20193;-77
2023/08/06 09:12:54;;;;;;;0.10;0.10;;;;;12.30;93312.00;;;;7389450;19;20151;-79
2023/08/06 09:15:29;;;;;;;0.05;0.05;;;;;12.20;93305.00;;;;7388776;19;20152;-79
2023/08/06 09:17:57;;;;;;;0.52;0.30;;;;;12.20;93309.00;;;;7387433;19;20249;-79
2023/08/06 09:20:34;;;;;;;1.55;0.10;;;;;12.20;93315.00;;;;7389032;19;20140;-79
2023/08/06 09:23:10;;;;;;;0.10;0.10;;;;;12.10;93319.00;;;;7387689;19;20165;-80
2023/08/06 09:25:44;;;;;;;0.60;0.40;;;;;12.10;93323.00;;;;7388770;19;20136;-79
2023/08/06 09:28:14;;;;;;;0.15;0.05;;;;;11.90;93331.00;;;;7388540;19;20125;-79
2023/08/06 09:30:52;;;;;;;0.20;0.20;;;;;11.90;93319.00;;;;7389149;19;20474;-77
2023/08/06 09:33:22;;;;;;;0.43;0.20;;;;;12.00;93319.00;;;;7389576;19;20160;-77
2023/08/06 09:36:00;;;;;;;0.30;0.20;;;;;12.00;93308.00;;;;7392032;19;20132;-78
2023/08/06 09:38:40;;;;;;;0.00;0.00;;;;;12.00;93319.00;;;;7390551;19;20592;-79
2023/08/06 09:41:08;;;;;;;0.60;0.20;;;;;12.10;93312.00;;;;7391872;19;20478;-80
2023/08/06 09:43:45;;;;;;;0.08;0.08;;;;;12.00;93318.00;;;;7390377;19;20192;-77
2023/08/06 09:46:16;;;;;;;0.10;0.03;;;;;12.10;93324.00;;;;7388467;19;20626;-79
2023/08/06 09:48:51;;;;;;;0.50;0.20;;;;;12.00;93337.00;;;;7388576;19;20128;-80
2023/08/06 09:51:18;;;;;;;0.22;0.20;;;;;12.00;93330.00;;;;7390527;19;20149;-77
2023/08/06 09:53:54;;;;;;;0.25;0.10;;;;;12.20;93323.00;;;;7389168;19;20141;-81
2023/08/06 09:56:22;;;;;;;0.43;0.00;;;;;12.40;93325.00;;;;7388828;19;20137;-79
2023/08/06 09:58:57;;;;;;;1.20;0.10;;;;;12.40;93327.00;;;;7387740;19;20508;-78
2023/08/06 10:01:25;;;;;;;0.03;0.03;;;;;12.60;93337.00;;;;7387850;19;20176;-79
2023/08/06 10:03:54;;;;;;;0.10;0.10;;;;;12.30;93341.00;;;;7384206;19;20212;-75
2023/08/06 10:06:36;;;;;;;0.10;0.10;;;;;12.40;93340.00;;;;7386733;19;20148;-77
2023/08/06 10:09:05;;;;;;;0.57;0.20;;;;;12.20;93353.00;;;;7386911;19;20516;-80
2023/08/06 10:11:41;;;;;;;0.10;0.10;;;;;12.00;93350.00;;;;7387984;19;20164;-83
2023/08/06 10:14:35;;;;;;;0.30;0.20;;;;;11.90;93348.00;;;;7388452;19;20147;-80
2023/08/06 10:17:10;;;;;;;1.55;0.40;;;;;11.70;93360.00;;;;7391179;19;20186;-79
2023/08/06 10:19:45;;;;;;;0.20;0.20;;;;;11.90;93353.00;;;;7394405;19;20180;-79
2023/08/06 10:22:19;;;;;;;0.00;0.00;;;;;11.90;93351.00;;;;7388311;19;20144;-79
2023/08/06 10:24:51;;;;;;;0.20;0.20;;;;;11.70;93350.00;;;;7387878;19;20132;-81
2023/08/06 10:27:39;;;;;;;0.30;0.30;;;;;12.00;93357.00;;;;7389438;19;20137;-81
2023/08/06 10:30:26;;;;;;;1.33;0.30;;;;;11.70;93346.00;;;;7394346;19;20512;-83
2023/08/06 10:33:02;;;;;;;0.70;0.52;;;;;11.90;93347.00;;;;7392988;19;20129;-78
2023/08/06 10:35:49;;;;;;;0.30;0.30;;;;;11.70;93361.00;;;;7388460;19;22325;-76
2023/08/06 10:38:31;;;;;;;1.05;0.55;;;;;11.70;93354.00;;;;7384154;19;20224;-79
2023/08/06 10:40:59;;;;;;;0.30;0.30;;;;;12.00;93347.00;;;;7384853;19;20512;-75
2023/08/06 10:43:34;;;;;;;3.00;0.77;;;;;12.20;93370.00;;;;7383614;19;20152;-76
2023/08/06 10:46:06;;;;;;;0.40;0.40;;;;;12.10;93368.00;;;;7384767;19;20161;-76
2023/08/06 10:48:41;;;;;;;0.40;0.40;;;;;12.00;93382.00;;;;7385880;19;20133;-80
2023/08/06 10:51:15;;;;;;;0.73;0.73;;;;;11.90;93384.00;;;;7385665;19;20135;-75
2023/08/06 10:53:50;;;;;;;1.52;1.42;;;;;11.60;93396.00;;;;7383285;19;20540;-79
2023/08/06 10:56:27;;;;;;;1.35;1.20;;;;;11.30;93386.00;;;;7384523;19;20165;-81
2023/08/06 10:59:01;;;;;;;1.48;1.27;;;;;11.40;93401.00;;;;7399913;19;21854;-79
2023/08/06 11:01:30;;;;;;;2.63;1.25;;;;;11.40;93403.00;;;;7384448;19;20216;-76
2023/08/06 11:04:05;;;;;;;1.17;1.10;;;;;11.30;93384.00;;;;7389238;19;20614;-82
2023/08/06 11:06:33;;;;;;;1.90;1.70;;;;;11.40;93395.00;;;;7389050;19;20145;-85
2023/08/06 11:09:02;;;;;;;2.42;1.58;;;;;11.40;93403.00;;;;7389809;19;20173;-85
2023/08/06 11:11:37;;;;;;;2.15;1.70;;;;;11.10;93412.00;;;;7387024;19;20899;-80
2023/08/06 11:14:05;;;;;;;2.15;1.58;;;;;11.20;93419.00;;;;7384873;19;20528;-80
2023/08/06 11:16:41;;;;;;;2.88;1.90;;;;;11.10;93398.00;;;;7389028;19;20599;-79
2023/08/06 11:19:17;;;;;;;4.72;1.73;;;;;11.00;93425.00;;;;7390293;19;20128;-80
2023/08/06 11:21:54;;;;;;;2.10;1.90;;;;;10.90;93440.00;;;;7389296;19;20507;-81
2023/08/06 11:24:24;;;;;;;3.10;2.00;;;;;11.00;93442.00;;;;7390347;19;20600;-81
2023/08/06 11:26:59;;;;;;;4.60;2.10;;;;;10.80;93440.00;;;;7389983;19;20513;-82
2023/08/06 11:29:27;;;;;;;3.38;2.10;;;;;10.90;93442.00;;;;7388833;19;20149;-85
2023/08/06 11:32:06;;;;;;;6.27;2.80;;;;;11.00;93450.00;;;;7389151;19;20137;-80
2023/08/06 11:34:35;;;;;;;3.37;2.57;;;;;10.90;93446.00;;;;7385042;19;20173;-79
2023/08/06 11:37:10;;;;;;;4.53;2.90;;;;;10.60;93438.00;;;;7388428;19;20132;-80
2023/08/06 11:40:00;;;;;;;3.95;2.72;;;;;10.50;93454.00;;;;7401612;19;20129;-80
2023/08/06 11:42:35;;;;;;;4.13;2.85;;;;;10.40;93471.00;;;;7423404;19;20160;-79
2023/08/06 11:45:10;;;;;;;6.73;2.60;;;;;10.50;93469.00;;;;7411072;19;20180;-78
2023/08/06 11:47:40;;;;;;;3.75;2.72;;;;;10.40;93469.00;;;;7415767;19;20212;-80
2023/08/06 11:50:33;;;;;;;4.43;2.42;;;;;10.40;93470.00;;;;7345754;19;20501;-79
2023/08/06 11:53:15;;;;;;;4.60;3.30;;;;;10.30;93474.00;;;;7383963;19;20200;-90
2023/08/06 11:55:49;;;;;;;3.53;2.77;;;;;10.30;93461.00;;;;7404474;19;20148;-88
2023/08/06 11:58:24;;;;;;;5.50;2.70;;;;;10.40;93468.00;;;;7405627;19;20159;-91
2023/08/06 12:00:59;;;;;;;2.70;2.40;;;;;10.50;93458.00;;;;7402813;19;20179;-88
2023/08/06 12:03:28;;;;;;;2.30;1.97;;;;;10.50;93480.00;;;;7403759;19;20163;-88
2023/08/06 12:05:56;;;;;;;3.67;2.13;;;;;10.70;93466.00;;;;7403741;19;20147;-85
2023/08/06 12:08:30;;;;;;;2.53;2.10;;;;;10.60;93472.00;;;;7402972;19;20128;-90
2023/08/06 12:11:04;;;;;;;2.63;1.77;;;;;10.80;93474.00;;;;7405580;19;20148;-87
2023/08/06 12:13:38;;;;;;;1.77;1.50;;;;;11.00;93468.00;;;;7402886;19;20148;-91
2023/08/06 12:16:06;;;;;;;1.85;1.50;;;;;11.00;93453.00;;;;7406360;19;20159;-88
2023/08/06 12:18:48;;;;;;;1.98;1.80;;;;;11.20;93462.00;;;;7407368;19;20132;-92
2023/08/06 12:21:22;;;;;;;2.78;1.55;;;;;11.20;93447.00;;;;7405713;19;20145;-86
2023/08/06 12:23:56;;;;;;;1.52;1.40;;;;;11.30;93476.00;;;;7402546;19;20144;-85
2023/08/06 12:26:30;;;;;;;2.40;1.40;;;;;11.10;93466.00;;;;7402226;19;20200;-86
2023/08/06 12:29:04;;;;;;;5.13;1.80;;;;;11.20;93476.00;;;;7401245;19;20655;-83
2023/08/06 12:31:38;;;;;;;5.95;2.45;;;;;11.10;93466.00;;;;7403367;19;20140;-92
2023/08/06 12:34:07;;;;;;;2.60;2.00;;;;;11.10;93470.00;;;;7401513;19;20145;-83
2023/08/06 12:36:41;;;;;;;2.80;1.98;;;;;11.00;93487.00;;;;7400963;19;20157;-84
2023/08/06 12:39:15;;;;;;;3.03;1.90;;;;;11.10;93475.00;;;;7401925;19;20469;-83
2023/08/06 12:41:49;;;;;;;4.90;1.88;;;;;11.10;93488.00;;;;7402065;19;20164;-83
2023/08/06 12:44:17;;;;;;;3.53;1.85;;;;;11.20;93482.00;;;;7401821;19;20228;-85
2023/08/06 12:46:52;;;;;;;1.75;1.65;;;;;11.20;93472.00;;;;7400366;19;20156;-83
2023/08/06 12:49:24;;;;;;;2.20;1.25;;;;;11.10;93481.00;;;;7402422;19;20161;-87
2023/08/06 12:52:09;;;;;;;3.00;1.67;;;;;11.20;93480.00;;;;7395774;19;20147;-90
2023/08/06 12:54:49;;;;;;;2.90;1.70;;;;;11.70;93459.00;;;;7393006;19;20144;-87